Sea Isle City Weather Update August 28, 2011

Weather Report
Home » Local » Weather Report Send this page to a friend
Sea Isle City, New Jersey
Overcast Overcast

Feels Like: 72°

Wind Chill: 72° Ceiling: 600
Heat Index: 72° Visibility: 3mi
Dew Point: 70° Wind: 20mph
Humidity: 94% Direction: 80° (E)
Pressure: 28.79″ Gusts: 29mph
Report Text: KWWD 280615Z AUTO 08017G25KT 3SM OVC006 22/21 A2879 RMK AO1 P0021
3 AM
Heavy Rain
Heavy Rain 75°
4 AM
Heavy Rain
Heavy Rain 74°
5 AM
Heavy Rain
Heavy Rain 75°
Local Information
Alerts
Interactive Weather Map
View Detailed Observations for the last
48 Hours · 14 Days
View Complete Hourly Forecast » Radar · Satellite · Surface Analysis
Tropical Storm Tracking
Hurricane Irene
ATLANTIC TRACK
Hurricane Irene Maps:
» Current Track
» Visible Satellite
» Infrared Satellite
Bulletins:
» Advisory
» Storm Log
Additional Resources:
» Watches & Warnings
» Severe Outlook Today
» Severe Outlook Tomorrow
» Lightning Strikes
» Hurricane Season Summaries
Share
Posted in Avalon, In the News, Sea Isle City, Weather Conditions

Leave a Reply

Your email address will not be published. Required fields are marked *

*

Blog Catergories
Ian Lazarus
The Lazarus Team
The Landis Company Realtors
6000 Landis Avenue
Sea Isle City NJ 08243